sensor_id;sensor_type;location;lat;lon;timestamp;temperature;humidity
13375;DHT22;6756;51.354;15.754;2023-07-30T00:00:07;15.70;1.00
13375;DHT22;6756;51.354;15.754;2023-07-30T00:04:07;15.60;1.00
13375;DHT22;6756;51.354;15.754;2023-07-30T00:08:08;15.60;99.90
13375;DHT22;6756;51.354;15.754;2023-07-30T00:12:09;15.60;99.90
13375;DHT22;6756;51.354;15.754;2023-07-30T00:16:10;15.60;99.90
13375;DHT22;6756;51.354;15.754;2023-07-30T00:20:11;15.50;1.00
13375;DHT22;6756;51.354;15.754;2023-07-30T00:24:14;15.50;1.00
13375;DHT22;6756;51.354;15.754;2023-07-30T00:28:15;15.50;99.90
13375;DHT22;6756;51.354;15.754;2023-07-30T00:32:16;15.50;99.90
13375;DHT22;6756;51.354;15.754;2023-07-30T00:36:17;15.40;1.00
13375;DHT22;6756;51.354;15.754;2023-07-30T00:40:18;15.40;99.90
13375;DHT22;6756;51.354;15.754;2023-07-30T00:44:19;15.40;1.00
13375;DHT22;6756;51.354;15.754;2023-07-30T00:48:19;15.40;1.00
13375;DHT22;6756;51.354;15.754;2023-07-30T00:52:21;15.40;99.90
13375;DHT22;6756;51.354;15.754;2023-07-30T00:56:22;15.30;99.90
13375;DHT22;6756;51.354;15.754;2023-07-30T01:00:23;15.30;1.00
13375;DHT22;6756;51.354;15.754;2023-07-30T01:04:25;15.30;1.00
13375;DHT22;6756;51.354;15.754;2023-07-30T01:08:26;15.30;99.90
13375;DHT22;6756;51.354;15.754;2023-07-30T01:12:29;15.30;1.00
13375;DHT22;6756;51.354;15.754;2023-07-30T01:16:31;15.30;1.00
13375;DHT22;6756;51.354;15.754;2023-07-30T01:20:32;15.30;1.00
13375;DHT22;6756;51.354;15.754;2023-07-30T01:24:33;15.30;1.00
13375;DHT22;6756;51.354;15.754;2023-07-30T01:28:37;15.30;1.00
13375;DHT22;6756;51.354;15.754;2023-07-30T01:32:38;15.30;99.90
13375;DHT22;6756;51.354;15.754;2023-07-30T01:36:41;15.30;99.90
13375;DHT22;6756;51.354;15.754;2023-07-30T01:40:42;15.30;1.00
13375;DHT22;6756;51.354;15.754;2023-07-30T01:44:43;15.30;99.90
13375;DHT22;6756;51.354;15.754;2023-07-30T01:48:44;15.30;99.90
13375;DHT22;6756;51.354;15.754;2023-07-30T01:52:44;15.20;99.90
13375;DHT22;6756;51.354;15.754;2023-07-30T01:56:45;15.20;1.00
13375;DHT22;6756;51.354;15.754;2023-07-30T02:00:46;15.10;99.90
13375;DHT22;6756;51.354;15.754;2023-07-30T02:04:47;15.00;1.00
13375;DHT22;6756;51.354;15.754;2023-07-30T02:08:48;15.00;50.40
13375;DHT22;6756;51.354;15.754;2023-07-30T02:12:49;15.00;99.90
13375;DHT22;6756;51.354;15.754;2023-07-30T02:16:49;15.00;99.90
13375;DHT22;6756;51.354;15.754;2023-07-30T02:20:50;14.90;1.00
13375;DHT22;6756;51.354;15.754;2023-07-30T02:24:51;15.00;99.90
13375;DHT22;6756;51.354;15.754;2023-07-30T02:28:51;15.00;99.90
13375;DHT22;6756;51.354;15.754;2023-07-30T02:32:52;15.00;99.90
13375;DHT22;6756;51.354;15.754;2023-07-30T02:36:53;15.10;43.10
13375;DHT22;6756;51.354;15.754;2023-07-30T02:40:53;15.00;99.90
13375;DHT22;6756;51.354;15.754;2023-07-30T02:44:54;15.00;99.90
13375;DHT22;6756;51.354;15.754;2023-07-30T02:48:55;15.00;99.90
13375;DHT22;6756;51.354;15.754;2023-07-30T02:52:55;15.00;66.10
13375;DHT22;6756;51.354;15.754;2023-07-30T02:56:56;15.00;1.00
13375;DHT22;6756;51.354;15.754;2023-07-30T03:01:08;14.90;1.00
13375;DHT22;6756;51.354;15.754;2023-07-30T03:05:10;14.90;1.00
13375;DHT22;6756;51.354;15.754;2023-07-30T03:09:11;14.90;70.70
13375;DHT22;6756;51.354;15.754;2023-07-30T03:13:11;14.90;99.90
13375;DHT22;6756;51.354;15.754;2023-07-30T03:17:12;14.90;99.90
13375;DHT22;6756;51.354;15.754;2023-07-30T03:21:13;14.90;99.90
13375;DHT22;6756;51.354;15.754;2023-07-30T03:25:14;15.00;37.20
13375;DHT22;6756;51.354;15.754;2023-07-30T03:29:15;15.00;99.90
13375;DHT22;6756;51.354;15.754;2023-07-30T03:33:16;15.10;1.00
13375;DHT22;6756;51.354;15.754;2023-07-30T03:37:17;15.10;99.90
13375;DHT22;6756;51.354;15.754;2023-07-30T03:41:17;15.20;1.00
13375;DHT22;6756;51.354;15.754;2023-07-30T03:45:18;15.30;99.90
13375;DHT22;6756;51.354;15.754;2023-07-30T03:49:19;15.30;13.40
13375;DHT22;6756;51.354;15.754;2023-07-30T03:53:19;15.40;99.90
13375;DHT22;6756;51.354;15.754;2023-07-30T03:57:20;15.50;1.00
13375;DHT22;6756;51.354;15.754;2023-07-30T04:01:21;15.70;99.90
13375;DHT22;6756;51.354;15.754;2023-07-30T04:05:22;16.30;1.00
13375;DHT22;6756;51.354;15.754;2023-07-30T04:09:22;17.30;1.00
13375;DHT22;6756;51.354;15.754;2023-07-30T04:13:23;18.50;99.90
13375;DHT22;6756;51.354;15.754;2023-07-30T04:17:24;19.40;1.00
13375;DHT22;6756;51.354;15.754;2023-07-30T04:21:24;20.10;1.00
13375;DHT22;6756;51.354;15.754;2023-07-30T04:25:25;20.70;1.00
13375;DHT22;6756;51.354;15.754;2023-07-30T04:29:26;21.20;1.00
13375;DHT22;6756;51.354;15.754;2023-07-30T04:33:26;21.60;1.00
13375;DHT22;6756;51.354;15.754;2023-07-30T04:37:27;22.00;1.00
13375;DHT22;6756;51.354;15.754;2023-07-30T04:41:28;22.40;1.00
13375;DHT22;6756;51.354;15.754;2023-07-30T04:45:28;22.60;1.00
13375;DHT22;6756;51.354;15.754;2023-07-30T04:49:29;22.90;1.00
13375;DHT22;6756;51.354;15.754;2023-07-30T04:53:30;23.10;1.00
13375;DHT22;6756;51.354;15.754;2023-07-30T04:57:30;23.40;1.00
13375;DHT22;6756;51.354;15.754;2023-07-30T05:01:31;23.40;1.00
13375;DHT22;6756;51.354;15.754;2023-07-30T05:05:32;23.40;1.00
13375;DHT22;6756;51.354;15.754;2023-07-30T05:09:32;23.40;1.00
13375;DHT22;6756;51.354;15.754;2023-07-30T05:13:33;22.90;1.00
13375;DHT22;6756;51.354;15.754;2023-07-30T05:17:34;22.40;1.00
13375;DHT22;6756;51.354;15.754;2023-07-30T05:21:35;21.70;1.00
13375;DHT22;6756;51.354;15.754;2023-07-30T05:25:35;21.30;1.00
13375;DHT22;6756;51.354;15.754;2023-07-30T05:29:36;21.00;1.00
13375;DHT22;6756;51.354;15.754;2023-07-30T05:33:37;20.80;1.00
13375;DHT22;6756;51.354;15.754;2023-07-30T05:37:38;20.70;1.00
13375;DHT22;6756;51.354;15.754;2023-07-30T05:41:39;20.70;1.00
13375;DHT22;6756;51.354;15.754;2023-07-30T05:45:39;20.70;1.00
13375;DHT22;6756;51.354;15.754;2023-07-30T05:49:40;20.70;1.00
13375;DHT22;6756;51.354;15.754;2023-07-30T05:53:41;20.70;1.00
13375;DHT22;6756;51.354;15.754;2023-07-30T05:57:41;20.80;1.00
13375;DHT22;6756;51.354;15.754;2023-07-30T06:01:42;21.00;1.00
13375;DHT22;6756;51.354;15.754;2023-07-30T06:05:43;21.10;1.00
13375;DHT22;6756;51.354;15.754;2023-07-30T06:09:44;21.20;1.00
13375;DHT22;6756;51.354;15.754;2023-07-30T06:13:45;21.30;1.00
13375;DHT22;6756;51.354;15.754;2023-07-30T06:17:46;21.30;1.00
13375;DHT22;6756;51.354;15.754;2023-07-30T06:21:47;21.40;1.00
13375;DHT22;6756;51.354;15.754;2023-07-30T06:25:47;21.70;1.00
13375;DHT22;6756;51.354;15.754;2023-07-30T06:29:48;21.70;1.00
13375;DHT22;6756;51.354;15.754;2023-07-30T06:33:49;21.80;1.00
13375;DHT22;6756;51.354;15.754;2023-07-30T06:37:50;22.10;1.00
13375;DHT22;6756;51.354;15.754;2023-07-30T06:41:51;22.20;1.00
13375;DHT22;6756;51.354;15.754;2023-07-30T06:45:53;22.30;1.00
13375;DHT22;6756;51.354;15.754;2023-07-30T06:49:55;22.80;1.00
13375;DHT22;6756;51.354;15.754;2023-07-30T06:53:55;23.20;1.00
13375;DHT22;6756;51.354;15.754;2023-07-30T06:57:56;23.80;1.00
13375;DHT22;6756;51.354;15.754;2023-07-30T07:01:57;24.30;1.00
13375;DHT22;6756;51.354;15.754;2023-07-30T07:05:57;24.70;99.90
13375;DHT22;6756;51.354;15.754;2023-07-30T07:09:58;25.00;99.90
13375;DHT22;6756;51.354;15.754;2023-07-30T07:13:59;25.00;99.90
13375;DHT22;6756;51.354;15.754;2023-07-30T07:17:59;25.20;99.90
13375;DHT22;6756;51.354;15.754;2023-07-30T07:22:00;25.40;99.90
13375;DHT22;6756;51.354;15.754;2023-07-30T07:26:02;25.70;99.90
13375;DHT22;6756;51.354;15.754;2023-07-30T07:30:03;25.80;99.90
13375;DHT22;6756;51.354;15.754;2023-07-30T07:34:04;25.80;99.90
13375;DHT22;6756;51.354;15.754;2023-07-30T07:38:05;25.80;99.90
13375;DHT22;6756;51.354;15.754;2023-07-30T07:42:05;25.90;99.90
13375;DHT22;6756;51.354;15.754;2023-07-30T07:46:07;25.80;99.90
13375;DHT22;6756;51.354;15.754;2023-07-30T07:50:13;26.00;99.90
13375;DHT22;6756;51.354;15.754;2023-07-30T07:54:15;26.40;99.90
13375;DHT22;6756;51.354;15.754;2023-07-30T07:58:15;26.70;99.90
13375;DHT22;6756;51.354;15.754;2023-07-30T08:02:16;26.70;99.90
13375;DHT22;6756;51.354;15.754;2023-07-30T08:06:17;26.80;99.90
13375;DHT22;6756;51.354;15.754;2023-07-30T08:10:18;26.80;99.90
13375;DHT22;6756;51.354;15.754;2023-07-30T08:14:19;26.60;99.90
13375;DHT22;6756;51.354;15.754;2023-07-30T08:18:19;26.50;99.90
13375;DHT22;6756;51.354;15.754;2023-07-30T08:22:20;26.50;99.90
13375;DHT22;6756;51.354;15.754;2023-07-30T08:26:21;26.90;99.90
13375;DHT22;6756;51.354;15.754;2023-07-30T08:30:22;27.50;99.90
13375;DHT22;6756;51.354;15.754;2023-07-30T08:34:22;27.60;99.90
13375;DHT22;6756;51.354;15.754;2023-07-30T08:38:24;27.90;99.90
13375;DHT22;6756;51.354;15.754;2023-07-30T08:42:25;28.40;99.90
13375;DHT22;6756;51.354;15.754;2023-07-30T08:46:27;28.50;99.90
13375;DHT22;6756;51.354;15.754;2023-07-30T08:50:28;28.40;99.90
13375;DHT22;6756;51.354;15.754;2023-07-30T08:54:31;27.80;99.90
13375;DHT22;6756;51.354;15.754;2023-07-30T08:58:33;27.70;99.90
13375;DHT22;6756;51.354;15.754;2023-07-30T09:02:52;27.80;99.90
13375;DHT22;6756;51.354;15.754;2023-07-30T09:06:53;27.20;99.90
13375;DHT22;6756;51.354;15.754;2023-07-30T09:10:55;27.40;99.90
13375;DHT22;6756;51.354;15.754;2023-07-30T09:14:56;27.60;99.90
13375;DHT22;6756;51.354;15.754;2023-07-30T09:18:56;27.10;99.90
13375;DHT22;6756;51.354;15.754;2023-07-30T09:22:59;26.60;99.90
13375;DHT22;6756;51.354;15.754;2023-07-30T09:27:02;26.90;99.90
13375;DHT22;6756;51.354;15.754;2023-07-30T09:31:05;26.70;99.90
13375;DHT22;6756;51.354;15.754;2023-07-30T09:35:08;26.40;99.90
13375;DHT22;6756;51.354;15.754;2023-07-30T09:39:26;25.90;99.90
13375;DHT22;6756;51.354;15.754;2023-07-30T09:43:34;25.40;99.90
13375;DHT22;6756;51.354;15.754;2023-07-30T09:47:38;25.30;99.90
13375;DHT22;6756;51.354;15.754;2023-07-30T09:51:39;25.20;99.90
13375;DHT22;6756;51.354;15.754;2023-07-30T09:55:40;24.90;99.90
13375;DHT22;6756;51.354;15.754;2023-07-30T09:59:41;24.80;99.90
13375;DHT22;6756;51.354;15.754;2023-07-30T10:03:42;24.30;99.90
13375;DHT22;6756;51.354;15.754;2023-07-30T10:07:51;24.10;99.90
13375;DHT22;6756;51.354;15.754;2023-07-30T10:11:54;24.00;99.90
13375;DHT22;6756;51.354;15.754;2023-07-30T10:15:55;24.10;99.90
13375;DHT22;6756;51.354;15.754;2023-07-30T10:20:21;24.50;99.90
13375;DHT22;6756;51.354;15.754;2023-07-30T10:24:25;25.00;99.90
13375;DHT22;6756;51.354;15.754;2023-07-30T10:28:34;25.20;99.90
13375;DHT22;6756;51.354;15.754;2023-07-30T10:33:09;25.30;99.90
13375;DHT22;6756;51.354;15.754;2023-07-30T10:37:10;25.80;99.90
13375;DHT22;6756;51.354;15.754;2023-07-30T10:41:13;26.50;99.90
13375;DHT22;6756;51.354;15.754;2023-07-30T10:45:14;26.70;99.90
13375;DHT22;6756;51.354;15.754;2023-07-30T10:49:14;26.50;99.90
13375;DHT22;6756;51.354;15.754;2023-07-30T10:53:15;26.20;99.90
13375;DHT22;6756;51.354;15.754;2023-07-30T10:57:19;26.40;99.90
13375;DHT22;6756;51.354;15.754;2023-07-30T11:01:20;26.50;99.90
13375;DHT22;6756;51.354;15.754;2023-07-30T11:05:24;26.50;99.90
13375;DHT22;6756;51.354;15.754;2023-07-30T11:09:27;26.70;99.90
13375;DHT22;6756;51.354;15.754;2023-07-30T11:13:28;26.80;99.90
13375;DHT22;6756;51.354;15.754;2023-07-30T11:17:29;26.60;99.90
13375;DHT22;6756;51.354;15.754;2023-07-30T11:21:29;26.90;99.90
13375;DHT22;6756;51.354;15.754;2023-07-30T11:25:30;27.30;99.90
13375;DHT22;6756;51.354;15.754;2023-07-30T11:29:31;27.70;99.90
13375;DHT22;6756;51.354;15.754;2023-07-30T11:33:33;28.00;99.90
13375;DHT22;6756;51.354;15.754;2023-07-30T11:37:34;27.90;99.90
13375;DHT22;6756;51.354;15.754;2023-07-30T11:41:39;27.90;99.90
13375;DHT22;6756;51.354;15.754;2023-07-30T11:45:39;27.50;99.90
13375;DHT22;6756;51.354;15.754;2023-07-30T11:49:40;27.30;99.90
13375;DHT22;6756;51.354;15.754;2023-07-30T11:53:46;26.60;99.90
13375;DHT22;6756;51.354;15.754;2023-07-30T11:57:47;26.30;99.90
13375;DHT22;6756;51.354;15.754;2023-07-30T12:01:48;26.00;99.90
13375;DHT22;6756;51.354;15.754;2023-07-30T12:05:49;25.70;99.90
13375;DHT22;6756;51.354;15.754;2023-07-30T12:09:50;25.60;99.90
13375;DHT22;6756;51.354;15.754;2023-07-30T12:13:51;25.80;99.90
13375;DHT22;6756;51.354;15.754;2023-07-30T12:17:52;26.00;99.90
13375;DHT22;6756;51.354;15.754;2023-07-30T12:21:53;26.10;99.90
13375;DHT22;6756;51.354;15.754;2023-07-30T12:25:54;26.50;99.90
13375;DHT22;6756;51.354;15.754;2023-07-30T12:29:55;27.00;99.90
13375;DHT22;6756;51.354;15.754;2023-07-30T12:33:56;27.50;99.90
13375;DHT22;6756;51.354;15.754;2023-07-30T12:37:57;28.10;99.90
13375;DHT22;6756;51.354;15.754;2023-07-30T12:41:58;28.40;99.90
13375;DHT22;6756;51.354;15.754;2023-07-30T12:45:59;28.00;99.90
13375;DHT22;6756;51.354;15.754;2023-07-30T12:50:00;27.00;99.90
13375;DHT22;6756;51.354;15.754;2023-07-30T12:54:01;26.30;99.90
13375;DHT22;6756;51.354;15.754;2023-07-30T12:58:02;26.40;99.90
13375;DHT22;6756;51.354;15.754;2023-07-30T13:02:03;26.30;99.90
13375;DHT22;6756;51.354;15.754;2023-07-30T13:06:04;25.90;99.90
13375;DHT22;6756;51.354;15.754;2023-07-30T13:10:06;26.20;99.90
13375;DHT22;6756;51.354;15.754;2023-07-30T13:14:08;26.80;99.90
13375;DHT22;6756;51.354;15.754;2023-07-30T13:18:08;27.10;99.90
13375;DHT22;6756;51.354;15.754;2023-07-30T13:22:09;27.30;99.90
13375;DHT22;6756;51.354;15.754;2023-07-30T13:26:10;27.50;99.90
13375;DHT22;6756;51.354;15.754;2023-07-30T13:30:10;27.50;99.90
13375;DHT22;6756;51.354;15.754;2023-07-30T13:34:11;27.70;99.90
13375;DHT22;6756;51.354;15.754;2023-07-30T13:38:12;27.60;99.90
13375;DHT22;6756;51.354;15.754;2023-07-30T13:42:13;27.60;99.90
13375;DHT22;6756;51.354;15.754;2023-07-30T13:46:14;27.70;99.90
13375;DHT22;6756;51.354;15.754;2023-07-30T13:50:14;27.90;99.90
13375;DHT22;6756;51.354;15.754;2023-07-30T13:54:15;28.00;99.90
13375;DHT22;6756;51.354;15.754;2023-07-30T13:58:16;28.00;99.90
13375;DHT22;6756;51.354;15.754;2023-07-30T14:02:17;27.90;99.90
13375;DHT22;6756;51.354;15.754;2023-07-30T14:06:17;28.00;99.90
13375;DHT22;6756;51.354;15.754;2023-07-30T14:10:18;27.70;99.90
13375;DHT22;6756;51.354;15.754;2023-07-30T14:14:19;27.80;99.90
13375;DHT22;6756;51.354;15.754;2023-07-30T14:18:23;28.10;99.90
13375;DHT22;6756;51.354;15.754;2023-07-30T14:22:24;28.30;99.90
13375;DHT22;6756;51.354;15.754;2023-07-30T14:26:25;28.50;99.90
13375;DHT22;6756;51.354;15.754;2023-07-30T14:30:26;28.30;99.90
13375;DHT22;6756;51.354;15.754;2023-07-30T14:34:27;27.80;99.90
13375;DHT22;6756;51.354;15.754;2023-07-30T14:38:28;27.20;99.90
13375;DHT22;6756;51.354;15.754;2023-07-30T14:42:29;26.60;99.90
13375;DHT22;6756;51.354;15.754;2023-07-30T14:46:30;26.20;99.90
13375;DHT22;6756;51.354;15.754;2023-07-30T14:50:30;26.20;99.90
13375;DHT22;6756;51.354;15.754;2023-07-30T14:54:31;26.50;99.90
13375;DHT22;6756;51.354;15.754;2023-07-30T14:58:32;26.60;99.90
13375;DHT22;6756;51.354;15.754;2023-07-30T15:02:33;26.80;99.90
13375;DHT22;6756;51.354;15.754;2023-07-30T15:06:35;26.90;99.90
13375;DHT22;6756;51.354;15.754;2023-07-30T15:10:36;27.10;99.90
13375;DHT22;6756;51.354;15.754;2023-07-30T15:14:37;27.30;99.90
13375;DHT22;6756;51.354;15.754;2023-07-30T15:18:38;27.20;99.90
13375;DHT22;6756;51.354;15.754;2023-07-30T15:22:39;27.00;99.90
13375;DHT22;6756;51.354;15.754;2023-07-30T15:26:40;26.90;99.90
13375;DHT22;6756;51.354;15.754;2023-07-30T15:30:40;26.90;99.90
13375;DHT22;6756;51.354;15.754;2023-07-30T15:34:41;26.80;99.90
13375;DHT22;6756;51.354;15.754;2023-07-30T15:38:42;26.90;99.90
13375;DHT22;6756;51.354;15.754;2023-07-30T15:42:43;26.80;99.90
13375;DHT22;6756;51.354;15.754;2023-07-30T15:46:47;26.70;99.90
13375;DHT22;6756;51.354;15.754;2023-07-30T15:50:49;26.50;99.90
13375;DHT22;6756;51.354;15.754;2023-07-30T15:54:49;26.30;99.90
13375;DHT22;6756;51.354;15.754;2023-07-30T15:58:50;26.30;99.90
13375;DHT22;6756;51.354;15.754;2023-07-30T16:02:51;26.30;99.90
13375;DHT22;6756;51.354;15.754;2023-07-30T16:06:54;26.50;99.90
13375;DHT22;6756;51.354;15.754;2023-07-30T16:11:06;26.60;99.90
13375;DHT22;6756;51.354;15.754;2023-07-30T16:15:07;26.30;99.90
13375;DHT22;6756;51.354;15.754;2023-07-30T16:19:07;25.80;99.90
13375;DHT22;6756;51.354;15.754;2023-07-30T16:23:08;25.20;99.90
13375;DHT22;6756;51.354;15.754;2023-07-30T16:27:09;25.20;99.90
13375;DHT22;6756;51.354;15.754;2023-07-30T16:31:11;25.10;99.90
13375;DHT22;6756;51.354;15.754;2023-07-30T16:35:11;24.80;99.90
13375;DHT22;6756;51.354;15.754;2023-07-30T16:39:13;24.70;99.90
13375;DHT22;6756;51.354;15.754;2023-07-30T16:43:13;24.60;99.90
13375;DHT22;6756;51.354;15.754;2023-07-30T16:47:15;24.40;99.90
13375;DHT22;6756;51.354;15.754;2023-07-30T16:51:15;24.30;99.90
13375;DHT22;6756;51.354;15.754;2023-07-30T16:55:17;24.20;99.90
13375;DHT22;6756;51.354;15.754;2023-07-30T16:59:18;24.30;99.90
13375;DHT22;6756;51.354;15.754;2023-07-30T17:03:18;24.40;99.90
13375;DHT22;6756;51.354;15.754;2023-07-30T17:07:19;24.50;99.90
13375;DHT22;6756;51.354;15.754;2023-07-30T17:11:20;24.40;99.90
13375;DHT22;6756;51.354;15.754;2023-07-30T17:15:21;24.30;99.90
13375;DHT22;6756;51.354;15.754;2023-07-30T17:19:22;24.00;99.90
13375;DHT22;6756;51.354;15.754;2023-07-30T17:23:23;23.80;99.90
13375;DHT22;6756;51.354;15.754;2023-07-30T17:27:24;23.60;99.90
13375;DHT22;6756;51.354;15.754;2023-07-30T17:31:25;23.50;99.90
13375;DHT22;6756;51.354;15.754;2023-07-30T17:35:26;23.30;99.90
13375;DHT22;6756;51.354;15.754;2023-07-30T17:39:27;23.10;99.90
13375;DHT22;6756;51.354;15.754;2023-07-30T17:43:28;23.00;99.90
13375;DHT22;6756;51.354;15.754;2023-07-30T17:47:29;22.90;99.90
13375;DHT22;6756;51.354;15.754;2023-07-30T17:51:31;22.70;99.90
13375;DHT22;6756;51.354;15.754;2023-07-30T17:56:04;22.70;99.90
13375;DHT22;6756;51.354;15.754;2023-07-30T18:00:14;22.30;99.90
13375;DHT22;6756;51.354;15.754;2023-07-30T18:04:18;21.50;1.00
13375;DHT22;6756;51.354;15.754;2023-07-30T18:08:19;20.60;1.00
13375;DHT22;6756;51.354;15.754;2023-07-30T18:12:20;19.70;1.00
13375;DHT22;6756;51.354;15.754;2023-07-30T18:16:22;19.00;1.00
13375;DHT22;6756;51.354;15.754;2023-07-30T18:20:23;18.70;46.60
13375;DHT22;6756;51.354;15.754;2023-07-30T18:24:24;18.20;99.90
13375;DHT22;6756;51.354;15.754;2023-07-30T18:28:24;18.00;99.90
13375;DHT22;6756;51.354;15.754;2023-07-30T18:32:25;17.90;99.90
13375;DHT22;6756;51.354;15.754;2023-07-30T18:36:26;17.80;99.90
13375;DHT22;6756;51.354;15.754;2023-07-30T18:40:27;17.70;99.90
13375;DHT22;6756;51.354;15.754;2023-07-30T18:44:28;17.70;1.00
13375;DHT22;6756;51.354;15.754;2023-07-30T18:48:29;17.70;75.20
13375;DHT22;6756;51.354;15.754;2023-07-30T18:52:32;17.70;99.90
13375;DHT22;6756;51.354;15.754;2023-07-30T18:56:33;17.60;99.90
13375;DHT22;6756;51.354;15.754;2023-07-30T19:00:34;17.60;1.00
13375;DHT22;6756;51.354;15.754;2023-07-30T19:04:35;17.50;99.90
13375;DHT22;6756;51.354;15.754;2023-07-30T19:08:36;17.50;99.90
13375;DHT22;6756;51.354;15.754;2023-07-30T19:12:37;17.50;1.00
13375;DHT22;6756;51.354;15.754;2023-07-30T19:16:41;17.50;99.90
13375;DHT22;6756;51.354;15.754;2023-07-30T19:20:42;17.50;45.80
13375;DHT22;6756;51.354;15.754;2023-07-30T19:24:43;17.50;99.90
13375;DHT22;6756;51.354;15.754;2023-07-30T19:28:45;17.50;99.90
13375;DHT22;6756;51.354;15.754;2023-07-30T19:32:49;17.50;99.90
13375;DHT22;6756;51.354;15.754;2023-07-30T19:36:50;17.40;1.00
13375;DHT22;6756;51.354;15.754;2023-07-30T19:40:51;17.30;71.90
13375;DHT22;6756;51.354;15.754;2023-07-30T19:44:54;17.30;99.90
13375;DHT22;6756;51.354;15.754;2023-07-30T19:48:56;17.40;1.00
13375;DHT22;6756;51.354;15.754;2023-07-30T19:52:58;17.40;80.70
13375;DHT22;6756;51.354;15.754;2023-07-30T19:56:59;17.30;99.90
13375;DHT22;6756;51.354;15.754;2023-07-30T20:01:01;17.30;99.90
13375;DHT22;6756;51.354;15.754;2023-07-30T20:05:02;17.30;1.00
13375;DHT22;6756;51.354;15.754;2023-07-30T20:09:03;17.30;1.00
13375;DHT22;6756;51.354;15.754;2023-07-30T20:13:04;17.30;1.00
13375;DHT22;6756;51.354;15.754;2023-07-30T20:17:05;17.30;1.00
13375;DHT22;6756;51.354;15.754;2023-07-30T20:21:08;17.30;24.30
13375;DHT22;6756;51.354;15.754;2023-07-30T20:25:09;17.20;1.00
13375;DHT22;6756;51.354;15.754;2023-07-30T20:29:10;17.20;99.90
13375;DHT22;6756;51.354;15.754;2023-07-30T20:33:11;17.10;99.90
13375;DHT22;6756;51.354;15.754;2023-07-30T20:37:12;17.10;99.90
13375;DHT22;6756;51.354;15.754;2023-07-30T20:41:13;17.00;99.90
13375;DHT22;6756;51.354;15.754;2023-07-30T20:45:13;17.00;99.90
13375;DHT22;6756;51.354;15.754;2023-07-30T20:49:14;16.90;99.90
13375;DHT22;6756;51.354;15.754;2023-07-30T20:53:15;16.90;99.90
13375;DHT22;6756;51.354;15.754;2023-07-30T20:57:16;16.80;99.90
13375;DHT22;6756;51.354;15.754;2023-07-30T21:01:17;16.80;99.90
13375;DHT22;6756;51.354;15.754;2023-07-30T21:05:18;16.70;99.90
13375;DHT22;6756;51.354;15.754;2023-07-30T21:09:18;16.60;99.90
13375;DHT22;6756;51.354;15.754;2023-07-30T21:13:19;16.60;99.90
13375;DHT22;6756;51.354;15.754;2023-07-30T21:17:20;16.60;99.90
13375;DHT22;6756;51.354;15.754;2023-07-30T21:21:21;16.60;99.90
13375;DHT22;6756;51.354;15.754;2023-07-30T21:25:22;16.60;99.90
13375;DHT22;6756;51.354;15.754;2023-07-30T21:29:23;16.50;99.90
13375;DHT22;6756;51.354;15.754;2023-07-30T21:33:23;16.50;99.90
13375;DHT22;6756;51.354;15.754;2023-07-30T21:37:24;16.40;99.90
13375;DHT22;6756;51.354;15.754;2023-07-30T21:41:25;16.30;99.90
13375;DHT22;6756;51.354;15.754;2023-07-30T21:45:26;16.20;99.90
13375;DHT22;6756;51.354;15.754;2023-07-30T21:49:27;16.20;99.90
13375;DHT22;6756;51.354;15.754;2023-07-30T21:53:29;16.30;99.90
13375;DHT22;6756;51.354;15.754;2023-07-30T21:57:30;16.30;99.90
13375;DHT22;6756;51.354;15.754;2023-07-30T22:01:31;16.30;99.90
13375;DHT22;6756;51.354;15.754;2023-07-30T22:05:31;16.30;99.90
13375;DHT22;6756;51.354;15.754;2023-07-30T22:09:36;16.20;99.90
13375;DHT22;6756;51.354;15.754;2023-07-30T22:13:36;16.10;99.90
13375;DHT22;6756;51.354;15.754;2023-07-30T22:17:37;16.10;99.90
13375;DHT22;6756;51.354;15.754;2023-07-30T22:21:38;16.00;40.70
13375;DHT22;6756;51.354;15.754;2023-07-30T22:25:39;15.90;1.00
13375;DHT22;6756;51.354;15.754;2023-07-30T22:29:40;15.80;1.00
13375;DHT22;6756;51.354;15.754;2023-07-30T22:33:40;15.70;99.90
13375;DHT22;6756;51.354;15.754;2023-07-30T22:37:41;15.60;99.90
13375;DHT22;6756;51.354;15.754;2023-07-30T22:41:42;15.50;99.90
13375;DHT22;6756;51.354;15.754;2023-07-30T22:45:43;15.40;1.00
13375;DHT22;6756;51.354;15.754;2023-07-30T22:49:44;15.20;1.00
13375;DHT22;6756;51.354;15.754;2023-07-30T22:53:45;15.20;84.20
13375;DHT22;6756;51.354;15.754;2023-07-30T22:57:46;15.10;99.90
13375;DHT22;6756;51.354;15.754;2023-07-30T23:01:47;15.10;99.90
13375;DHT22;6756;51.354;15.754;2023-07-30T23:05:47;15.00;99.90
13375;DHT22;6756;51.354;15.754;2023-07-30T23:09:48;14.90;99.90
13375;DHT22;6756;51.354;15.754;2023-07-30T23:13:49;14.90;99.90
13375;DHT22;6756;51.354;15.754;2023-07-30T23:17:50;14.80;99.90
13375;DHT22;6756;51.354;15.754;2023-07-30T23:21:51;14.70;99.90
13375;DHT22;6756;51.354;15.754;2023-07-30T23:25:51;14.60;99.90
13375;DHT22;6756;51.354;15.754;2023-07-30T23:29:55;14.50;99.90
13375;DHT22;6756;51.354;15.754;2023-07-30T23:33:55;14.50;99.90
13375;DHT22;6756;51.354;15.754;2023-07-30T23:37:56;14.40;99.90
13375;DHT22;6756;51.354;15.754;2023-07-30T23:41:57;14.40;99.90
13375;DHT22;6756;51.354;15.754;2023-07-30T23:45:58;14.30;99.90
13375;DHT22;6756;51.354;15.754;2023-07-30T23:49:59;14.20;99.90
13375;DHT22;6756;51.354;15.754;2023-07-30T23:54:00;14.20;99.90
13375;DHT22;6756;51.354;15.754;2023-07-30T23:58:01;14.10;99.90
